Flight Track Log - Related Links

Times and Time Zones

All times are in EDT time to prevent confusion due to time zone crossing. See the N758MT flight status page for this flight to view local times or setup timezone preferences in your user account.

Time Position Orientation Groundspeed Altitude Reporting Facility
EDT Latitude Longitude Course Direction KTS MPH feet Rate Location/Type
Thu 08:18:00 AM 27.9833 -82.0000 360° North 95 109 500  Level Tampa TRACON
Thu 08:18:48 AM 28.0000 -82.0000 360° North 108 124 1,000 556 Climbing Tampa TRACON
Thu 08:19:48 AM 28.0333 -82.0000 360° North 111 128 1,500 500 Climbing Tampa TRACON
Thu 08:20:48 AM 28.0667 -82.0000 360° North 108 124 2,000 250 Climbing Tampa TRACON
Thu 08:21:48 AM 28.1000 -82.0333 319° Northwest 122 140 2,000  Level Tampa TRACON
Thu 08:22:42 AM 28.1167 -82.0500 319° Northwest 127 146 2,000 100 Level Tampa TRACON
Thu 08:23:48 AM 28.1500 -82.0667 336° Northwest 120 138 2,200 435 Climbing Tampa TRACON
Thu 08:25:55 AM 28.2000 -82.0833 344° North 94 108 3,400 560 Climbing Orlando TRACON
Thu 08:27:01 AM 28.2000 -82.0500 90° East 93 107 4,000 550 Climbing Orlando TRACON
Thu 08:27:55 AM 28.2167 -82.0167 60° Northeast 96 110 4,500 474 Climbing Orlando TRACON
Thu 08:28:55 AM 28.2333 -82.0000 41° Northeast 97 112 4,900 200 Climbing Orlando TRACON
Thu 08:29:55 AM 28.2333 -81.9667 90° East 110 127 4,900 48 Level Orlando TRACON
Thu 08:31:01 AM 28.2500 -81.9167 69° East 119 137 5,000  Climbing Orlando TRACON
Thu 08:32:07 AM 28.2667 -81.8833 60° Northeast 125 144 4,900  Descending Orlando TRACON
Thu 08:33:07 AM 28.3000 -81.8667 24° Northeast 112 129 5,000 58 Climbing Orlando TRACON
Thu 08:33:50 AM 28.3167 -81.8500 41° Northeast 116 133 5,000  Level Orlando TRACON
Thu 08:35:08 AM 28.3500 -81.8167 41° Northeast 118 136 5,000  Level Orlando TRACON
Thu 08:35:56 AM 28.3667 -81.8000 41° Northeast 119 137 5,000 -56 Level Orlando TRACON
Thu 08:36:56 AM 28.4000 -81.7833 24° Northeast 120 138 4,900  Descending Orlando TRACON
Thu 08:37:56 AM 28.4333 -81.7667 24° Northeast 119 137 5,000 48 Climbing Orlando TRACON
Thu 08:39:02 AM 28.4667 -81.7500 24° Northeast 120 138 5,000 -48 Level Orlando TRACON
Thu 08:40:02 AM 28.4833 -81.7167 60° Northeast 117 135 4,900 -50 Descending Orlando TRACON
Thu 08:41:02 AM 28.5167 -81.7000 24° Northeast 120 138 4,900  Level Orlando TRACON
Thu 08:41:56 AM 28.5333 -81.6833 41° Northeast 118 136 4,900  Level Orlando TRACON
Thu 08:42:57 AM 28.5667 -81.6667 24° Northeast 120 138 4,900  Level Orlando TRACON
Thu 08:43:57 AM 28.6000 -81.6333 41° Northeast 121 139 4,900  Level Orlando TRACON
Thu 08:44:57 AM 28.6167 -81.6167 41° Northeast 123 142 4,900  Level Orlando TRACON
Thu 08:45:57 AM 28.6500 -81.6000 24° Northeast 121 139 4,900 48 Level Orlando TRACON
Thu 08:47:03 AM 28.6833 -81.5667 41° Northeast 119 137 5,000 48 Climbing Orlando TRACON
Thu 08:48:03 AM 28.7000 -81.5500 41° Northeast 119 137 5,000  Level Orlando TRACON
Thu 08:48:57 AM 28.7333 -81.5333 24° Northeast 122 140 5,000 -52 Level Orlando TRACON
Thu 08:49:58 AM 28.7500 -81.5000 60° Northeast 123 142 4,900  Descending Orlando TRACON
Thu 08:51:46 AM 28.8056 -81.4708 25° Northeast 121 139 5,000 36 Climbing Jacksonville Center
Thu 08:52:46 AM 28.8347 -81.4469 36° Northeast 122 140 5,000  Level Jacksonville Center
Thu 08:53:47 AM 28.8594 -81.4228 41° Northeast 123 142 5,000 50 Level Jacksonville Center
Thu 08:54:47 AM 28.8883 -81.4033 31° Northeast 121 139 5,100 50 Climbing Jacksonville Center
Thu 08:55:48 AM 28.9172 -81.3792 36° Northeast 121 139 5,100  Level Jacksonville Center
Thu 08:56:49 AM 28.9464 -81.3669 20° North 124 143 5,100 -295 Level Jacksonville Center
Thu 08:57:50 AM 28.9733 -81.3453 35° Northeast 141 162 4,500 -694 Descending Jacksonville Center
Thu 08:58:50 AM 28.9917 -81.3069 61° Northeast 146 168 3,700 -694 Descending Jacksonville Center
Thu 08:59:51 AM 29.0078 -81.2661 66° East 137 158 3,100 -344 Descending Jacksonville Center
Thu 09:00:52 AM 29.0242 -81.2303 62° Northeast 125 144 3,000 -47 Descending Jacksonville Center
Thu 09:01:59 AM 29.0381 -81.1897 69° East 121 139 3,000  Level Jacksonville Center
Thu 09:03:06 AM 29.0522 -81.1467 69° East 123 142 3,000  Level Jacksonville Center
Thu 09:04:07 AM 29.0622 -81.1108 72° East 124 143 3,000  Level Jacksonville Center
Thu 09:05:14 AM 29.0719 -81.0703 75° East 121 139 3,000  Level Jacksonville Center
Thu 09:06:08 AM 29.0819 -81.0369 71° East 121 139 3,000  Level Jacksonville Center
Thu 09:07:09 AM 29.0939 -80.9986 70° East 123 142 3,000 -207 Level Jacksonville Center
Thu 09:08:04 AM 29.1144 -80.9744 46° Northeast 126 145 2,600 -466 Descending Jacksonville Center
Thu 09:09:05 AM 29.1497 -80.9692 North 136 157 2,100 -295 Descending Jacksonville Center
Thu 09:10:06 AM 29.1836 -80.9897 332° Northwest 130 150 2,000 -246 Descending Jacksonville Center
Thu 09:11:07 AM 29.1983 -81.0133 306° West 113 130 1,600 -787 Descending Jacksonville Center
Thu 09:12:08 AM 29.1864 -81.0422 245° Southwest 88 101 400 -1,180 Descending Jacksonville Center
Thu 09:14:00 AM 29.1799 -81.0581 297° West  Level Estimated
Thu 09:21:00 AM 29.1799 -81.0581 161° South  Level Estimated
Thu 09:22:00 AM 29.1799 -81.0581 152° Southeast  Level Estimated

Login

Don't have an account? Register now (free) for customized features, flight alerts, and more!